Time;durP1;ratioP1;P1;durP2;ratioP2;P2;SDS_P1;SDS_P2;PMS_P1;PMS_P2;Temp;Humidity;BMP_temperature;BMP_pressure;BME280_temperature;BME280_humidity;BME280_pressure;Samples;Min_cycle;Max_cycle;Signal;HPM_P1;HPM_P2
2023/01/09 00:00:32;;;;;;;7.20;2.30;;;;;;;7.09;100.00;99500.59;5053373;28;20448;-67
2023/01/09 00:02:59;;;;;;;11.07;3.40;;;;;;;7.07;100.00;99503.56;5053292;28;20456;-68
2023/01/09 00:05:26;;;;;;;12.93;3.17;;;;;;;7.08;100.00;99497.09;5052887;28;20861;-67
2023/01/09 00:07:52;;;;;;;11.20;3.13;;;;;;;7.00;100.00;99481.66;5053088;28;20489;-68
2023/01/09 00:10:19;;;;;;;12.03;3.20;;;;;;;6.98;100.00;99481.16;5053160;28;20448;-68
2023/01/09 00:12:47;;;;;;;8.87;3.43;;;;;;;6.94;100.00;99477.47;5053117;28;20441;-68
2023/01/09 00:15:14;;;;;;;10.33;3.27;;;;;;;6.92;100.00;99479.69;5053047;28;20445;-68
2023/01/09 00:17:41;;;;;;;9.00;2.93;;;;;;;6.92;100.00;99476.22;5052507;28;20547;-67
2023/01/09 00:20:09;;;;;;;8.40;3.37;;;;;;;6.81;100.00;99473.72;5052716;28;20534;-67
2023/01/09 00:22:36;;;;;;;10.17;3.90;;;;;;;6.78;100.00;99471.66;5052639;28;20446;-68
2023/01/09 00:25:04;;;;;;;10.07;3.47;;;;;;;6.69;100.00;99468.09;5053340;28;20477;-68
2023/01/09 00:27:31;;;;;;;8.53;2.90;;;;;;;6.74;100.00;99462.59;5052579;28;21008;-67
2023/01/09 00:29:59;;;;;;;12.27;3.80;;;;;;;6.73;100.00;99463.72;5052598;28;20493;-68
2023/01/09 00:32:26;;;;;;;8.17;3.23;;;;;;;6.73;100.00;99455.63;5052635;28;20530;-67
2023/01/09 00:34:53;;;;;;;9.07;2.80;;;;;;;6.69;100.00;99454.66;5052609;28;21019;-68
2023/01/09 00:37:19;;;;;;;7.50;3.13;;;;;;;6.73;100.00;99455.63;5052811;28;20521;-68
2023/01/09 00:39:46;;;;;;;11.13;3.33;;;;;;;6.70;100.00;99445.47;5056758;28;20429;-67
2023/01/09 00:42:16;;;;;;;8.43;3.10;;;;;;;6.66;100.00;99439.09;5056897;28;20529;-68
2023/01/09 00:44:46;;;;;;;9.10;3.73;;;;;;;6.64;100.00;99441.31;5056523;28;20442;-67
2023/01/09 00:47:17;;;;;;;8.20;3.20;;;;;;;6.67;100.00;99431.81;5056816;28;20619;-68
2023/01/09 00:49:45;;;;;;;10.20;4.40;;;;;;;6.69;100.00;99433.13;5056870;28;20513;-68
2023/01/09 00:52:13;;;;;;;8.23;3.20;;;;;;;6.70;100.00;99434.72;5056750;28;20438;-68
2023/01/09 00:54:42;;;;;;;6.90;3.00;;;;;;;6.72;100.00;99427.09;5056697;28;20446;-68
2023/01/09 00:57:11;;;;;;;8.73;4.03;;;;;;;6.72;100.00;99426.31;5056613;28;20446;-68
2023/01/09 00:59:38;;;;;;;12.37;4.13;;;;;;;6.74;100.00;99424.13;5056614;28;20442;-68
2023/01/09 01:02:05;;;;;;;10.90;3.37;;;;;;;6.69;100.00;99427.75;5056282;28;20939;-68
2023/01/09 01:10:01;;;;;;;7.93;3.03;;;;;;;6.50;100.00;99408.25;5056140;28;20452;-68
2023/01/09 01:12:28;;;;;;;16.23;3.90;;;;;;;6.46;100.00;99412.63;5056358;28;20438;-68
2023/01/09 01:14:54;;;;;;;8.37;3.23;;;;;;;6.40;100.00;99420.03;5056270;28;20434;-68
2023/01/09 01:17:21;;;;;;;10.07;4.37;;;;;;;6.37;100.00;99409.06;5055750;28;20576;-68
2023/01/09 01:19:49;;;;;;;9.60;4.23;;;;;;;6.40;100.00;99409.25;5056228;28;20481;-68
2023/01/09 01:22:15;;;;;;;13.77;4.33;;;;;;;6.37;100.00;99411.75;5055853;28;20971;-68
2023/01/09 01:24:42;;;;;;;10.83;3.87;;;;;;;6.30;100.00;99412.97;5056086;28;20438;-68
2023/01/09 01:27:08;;;;;;;10.10;3.67;;;;;;;6.27;100.00;99410.88;5056012;28;20446;-68
2023/01/09 01:29:35;;;;;;;11.80;4.10;;;;;;;6.29;100.00;99403.31;5056068;28;20521;-68
2023/01/09 01:32:02;;;;;;;9.20;3.13;;;;;;;6.23;100.00;99409.09;5055670;28;20442;-68
2023/01/09 01:34:29;;;;;;;8.23;3.40;;;;;;;6.15;100.00;99404.41;5055974;28;20481;-68
2023/01/09 01:36:57;;;;;;;13.13;3.90;;;;;;;6.11;100.00;99398.88;5055869;28;20438;-68
2023/01/09 01:39:23;;;;;;;9.03;3.80;;;;;;;6.13;100.00;99402.03;5055336;28;20592;-68
2023/01/09 01:41:50;;;;;;;10.67;3.97;;;;;;;6.11;100.00;99390.81;5055471;28;20943;-68
2023/01/09 01:44:54;;;;;;;11.20;3.90;;;;;;;6.11;100.00;99395.34;5055805;28;20446;-68
2023/01/09 01:47:24;;;;;;;11.13;4.07;;;;;;;6.13;100.00;99383.22;5055283;28;20448;-68
2023/01/09 01:49:52;;;;;;;12.60;4.33;;;;;;;6.10;100.00;99399.16;5054994;28;20466;-68
2023/01/09 01:52:21;;;;;;;11.07;4.40;;;;;;;6.12;100.00;99395.06;5055261;28;20480;-68
2023/01/09 01:54:48;;;;;;;13.63;3.40;;;;;;;6.08;100.00;99380.66;5055571;28;20446;-68
2023/01/09 01:57:15;;;;;;;10.67;4.37;;;;;;;6.10;100.00;99375.75;5055368;28;20530;-68
2023/01/09 01:59:48;;;;;;;9.27;4.40;;;;;;;6.11;100.00;99372.00;5055512;28;20438;-68
2023/01/09 02:02:18;;;;;;;12.00;4.77;;;;;;;6.14;100.00;99362.50;5055417;28;20466;-68
2023/01/09 02:04:46;;;;;;;10.77;4.07;;;;;;;6.18;100.00;99358.91;5055391;28;20442;-68
2023/01/09 02:07:12;;;;;;;10.20;4.43;;;;;;;6.18;100.00;99366.97;5054947;28;20485;-68
2023/01/09 02:09:43;;;;;;;11.27;5.07;;;;;;;6.20;100.00;99358.63;5055257;28;20437;-68
2023/01/09 02:12:22;;;;;;;10.70;4.17;;;;;;;6.11;100.00;99363.09;5055259;28;20452;-68
2023/01/09 02:14:52;;;;;;;10.20;4.03;;;;;;;6.11;100.00;99363.91;5054877;28;20418;-68
2023/01/09 02:17:35;;;;;;;9.47;3.93;;;;;;;6.16;100.00;99361.13;5055003;28;20445;-68
2023/01/09 02:20:25;;;;;;;9.40;4.00;;;;;;;6.13;100.00;99359.03;5055084;28;20521;-68
2023/01/09 02:23:03;;;;;;;12.37;4.53;;;;;;;6.11;100.00;99363.91;5055132;28;20868;-67
2023/01/09 02:25:59;;;;;;;9.33;4.13;;;;;;;6.10;100.00;99356.94;5054954;28;20445;-68
2023/01/09 02:28:51;;;;;;;15.40;5.30;;;;;;;6.05;100.00;99357.03;5054867;28;20458;-67
2023/01/09 02:31:22;;;;;;;10.20;4.43;;;;;;;6.07;100.00;99352.19;5054567;28;20452;-67
2023/01/09 02:33:56;;;;;;;12.00;5.03;;;;;;;6.06;100.00;99356.75;5054927;28;20433;-67
2023/01/09 02:36:30;;;;;;;12.30;4.17;;;;;;;5.99;100.00;99348.31;5054877;28;20863;-68
2023/01/09 02:39:13;;;;;;;12.43;5.13;;;;;;;5.96;100.00;99335.47;5054274;28;20585;-67
2023/01/09 02:41:46;;;;;;;12.97;5.27;;;;;;;5.96;100.00;99345.41;5054742;28;20435;-67
2023/01/09 02:44:15;;;;;;;12.70;5.10;;;;;;;5.89;100.00;99347.66;5054665;28;20434;-67
2023/01/09 02:46:43;;;;;;;13.93;5.03;;;;;;;5.88;100.00;99360.31;5054582;28;20510;-67
2023/01/09 02:49:11;;;;;;;11.83;4.93;;;;;;;5.89;100.00;99367.31;5054497;28;20459;-67
2023/01/09 02:51:45;;;;;;;11.33;4.53;;;;;;;5.89;100.00;99369.16;5054541;28;20442;-67
2023/01/09 02:54:24;;;;;;;18.63;5.80;;;;;;;5.87;100.00;99366.78;5054234;28;20433;-67
2023/01/09 02:57:09;;;;;;;11.43;5.37;;;;;;;5.86;100.00;99361.72;5054413;28;20458;-68
2023/01/09 02:59:42;;;;;;;11.83;4.97;;;;;;;5.84;100.00;99362.00;5054255;28;20505;-67
2023/01/09 03:02:36;;;;;;;16.50;5.53;;;;;;;5.86;100.00;99367.88;5053337;28;20425;-67
2023/01/09 03:05:08;;;;;;;11.60;4.97;;;;;;;5.87;100.00;99357.94;5054015;28;20426;-67
2023/01/09 03:07:39;;;;;;;13.83;5.73;;;;;;;5.91;100.00;99362.41;5054167;28;20829;-67
2023/01/09 03:10:12;;;;;;;11.40;5.50;;;;;;;5.91;100.00;99353.56;5054161;28;20442;-67
2023/01/09 03:12:42;;;;;;;11.43;5.33;;;;;;;5.89;100.00;99350.34;5054276;28;20831;-67
2023/01/09 03:15:12;;;;;;;12.47;4.83;;;;;;;5.88;100.00;99344.19;5054019;28;20448;-67
2023/01/09 03:17:44;;;;;;;17.03;5.47;;;;;;;5.92;100.00;99349.78;5053820;28;20498;-68
2023/01/09 03:20:13;;;;;;;18.10;5.23;;;;;;;5.92;100.00;99341.72;5053987;28;20525;-67
2023/01/09 03:22:45;;;;;;;19.37;6.60;;;;;;;5.86;100.00;99334.84;5053551;28;20477;-67
2023/01/09 03:25:12;;;;;;;14.77;6.73;;;;;;;5.88;100.00;99340.72;5053875;28;20431;-67
2023/01/09 03:27:38;;;;;;;12.17;5.27;;;;;;;5.95;100.00;99336.56;5053682;28;20493;-68
2023/01/09 03:30:06;;;;;;;12.87;5.83;;;;;;;5.93;100.00;99329.88;5053477;28;21027;-67
2023/01/09 03:32:33;;;;;;;11.70;5.70;;;;;;;6.03;100.00;99324.31;5053797;28;20526;-68
2023/01/09 03:35:01;;;;;;;11.73;6.10;;;;;;;6.08;100.00;99318.81;5053262;28;20856;-67
2023/01/09 03:37:27;;;;;;;13.27;5.70;;;;;;;6.17;100.00;99319.69;5053353;28;20489;-67
2023/01/09 03:39:54;;;;;;;10.70;5.10;;;;;;;6.19;100.00;99316.69;5053250;28;20935;-68
2023/01/09 03:42:20;;;;;;;11.90;6.47;;;;;;;6.19;100.00;99306.72;5053562;28;20442;-68
2023/01/09 03:44:49;;;;;;;12.97;5.83;;;;;;;6.27;100.00;99311.38;5053529;28;20481;-68
2023/01/09 03:47:16;;;;;;;14.00;6.17;;;;;;;6.37;100.00;99302.28;5053057;28;20500;-67
2023/01/09 03:49:42;;;;;;;13.70;6.07;;;;;;;6.41;100.00;99308.66;5053106;28;20944;-67
2023/01/09 03:52:12;;;;;;;16.57;6.03;;;;;;;6.48;100.00;99316.31;5053428;28;20442;-67
2023/01/09 03:54:39;;;;;;;16.77;6.63;;;;;;;6.55;100.00;99305.91;5053608;28;20446;-68
2023/01/09 03:57:05;;;;;;;12.60;6.07;;;;;;;6.60;100.00;99296.91;5053270;28;20438;-68
2023/01/09 03:59:32;;;;;;;14.23;6.00;;;;;;;6.59;100.00;99298.81;5053131;28;20557;-67
2023/01/09 04:01:58;;;;;;;14.40;6.87;;;;;;;6.67;100.00;99294.59;5053319;28;20438;-67
2023/01/09 04:04:25;;;;;;;15.33;7.00;;;;;;;6.68;100.00;99290.81;5053218;28;20438;-67
2023/01/09 04:06:52;;;;;;;16.60;7.13;;;;;;;6.67;100.00;99287.31;5053104;28;20447;-67
2023/01/09 04:09:20;;;;;;;16.70;7.10;;;;;;;6.68;100.00;99286.22;5052805;28;20540;-67
2023/01/09 04:11:46;;;;;;;24.47;7.40;;;;;;;6.72;100.00;99292.56;5053111;28;20434;-67
2023/01/09 04:14:13;;;;;;;22.37;7.43;;;;;;;6.70;100.00;99286.72;5052736;28;20446;-68
2023/01/09 04:16:39;;;;;;;16.70;6.47;;;;;;;6.72;100.00;99283.69;5053042;28;20438;-68
2023/01/09 04:19:06;;;;;;;15.30;7.00;;;;;;;6.72;100.00;99279.13;5052885;28;20482;-68
2023/01/09 04:21:32;;;;;;;12.13;5.93;;;;;;;6.75;100.00;99281.19;5052645;28;20525;-68
2023/01/09 04:23:59;;;;;;;16.80;6.00;;;;;;;6.71;100.00;99274.84;5052893;28;20470;-68
2023/01/09 04:26:27;;;;;;;13.23;6.07;;;;;;;6.73;100.00;99272.66;5052970;28;20438;-68
2023/01/09 04:28:53;;;;;;;15.07;6.03;;;;;;;6.72;100.00;99270.25;5052921;28;20458;-67
2023/01/09 04:31:20;;;;;;;18.30;7.67;;;;;;;6.70;100.00;99273.25;5052637;28;20503;-68
2023/01/09 04:33:46;;;;;;;16.03;6.60;;;;;;;6.69;100.00;99266.28;5052574;28;20438;-68
2023/01/09 04:36:13;;;;;;;21.47;6.63;;;;;;;6.68;100.00;99263.88;5052971;28;20472;-68
2023/01/09 04:38:40;;;;;;;15.87;6.27;;;;;;;6.69;100.00;99258.22;5053945;28;20574;-68
2023/01/09 04:41:06;;;;;;;12.57;5.53;;;;;;;6.72;100.00;99252.22;5052927;28;20446;-68
2023/01/09 04:43:34;;;;;;;13.83;6.57;;;;;;;6.59;100.00;99247.69;5052851;28;20442;-68
2023/01/09 04:46:02;;;;;;;13.97;5.30;;;;;;;6.57;100.00;99247.22;5052761;28;20448;-67
2023/01/09 04:48:28;;;;;;;18.53;6.37;;;;;;;6.56;100.00;99245.63;5052411;28;20459;-67
2023/01/09 04:50:55;;;;;;;16.37;6.20;;;;;;;6.61;100.00;99256.28;5052734;28;20533;-68
2023/01/09 04:53:21;;;;;;;15.73;6.57;;;;;;;6.56;100.00;99256.41;5052448;28;20961;-68
2023/01/09 04:55:48;;;;;;;15.47;7.47;;;;;;;6.60;100.00;99252.00;5052321;28;21014;-68
2023/01/09 04:58:14;;;;;;;14.90;6.37;;;;;;;6.64;100.00;99242.22;5052554;28;20458;-68
2023/01/09 05:00:42;;;;;;;18.20;6.47;;;;;;;6.72;100.00;99254.91;5052727;28;20449;-68
2023/01/09 05:03:09;;;;;;;17.83;7.20;;;;;;;6.78;100.00;99251.00;5052410;28;20962;-69
2023/01/09 05:05:35;;;;;;;17.50;6.80;;;;;;;6.80;100.00;99247.97;5052358;28;20951;-68
2023/01/09 05:08:02;;;;;;;14.53;6.40;;;;;;;6.79;100.00;99249.88;5052546;28;20542;-69
2023/01/09 05:10:29;;;;;;;11.43;5.83;;;;;;;6.85;100.00;99250.53;5052271;28;20526;-68
2023/01/09 05:12:55;;;;;;;16.97;6.43;;;;;;;6.86;100.00;99254.03;5052587;28;20438;-68
2023/01/09 05:15:22;;;;;;;16.43;6.27;;;;;;;6.85;100.00;99249.75;5052546;28;20456;-68
2023/01/09 05:17:49;;;;;;;11.23;5.90;;;;;;;6.82;100.00;99246.59;5052467;28;20454;-68
2023/01/09 05:20:16;;;;;;;18.40;7.00;;;;;;;6.77;100.00;99246.72;5052105;28;20573;-68
2023/01/09 05:22:43;;;;;;;13.50;6.60;;;;;;;6.78;100.00;99237.53;5052496;28;20544;-68
2023/01/09 05:25:09;;;;;;;20.07;7.17;;;;;;;6.83;100.00;99239.31;5053915;28;20874;-68
2023/01/09 05:27:36;;;;;;;21.00;8.37;;;;;;;6.82;100.00;99238.50;5056038;28;20816;-69
2023/01/09 05:30:03;;;;;;;15.17;5.93;;;;;;;6.86;100.00;99235.19;5056083;28;20438;-68
2023/01/09 05:32:30;;;;;;;15.23;5.80;;;;;;;6.86;100.00;99232.50;5056035;28;20798;-67
2023/01/09 05:34:58;;;;;;;15.50;6.87;;;;;;;6.88;100.00;99224.91;5055990;28;20543;-67
2023/01/09 05:37:24;;;;;;;16.67;7.20;;;;;;;6.78;100.00;99239.44;5055416;28;20446;-67
2023/01/09 05:39:51;;;;;;;16.17;7.90;;;;;;;6.80;100.00;99229.16;5055323;28;20899;-67
2023/01/09 05:42:17;;;;;;;15.90;6.40;;;;;;;6.82;100.00;99221.56;5055516;28;20799;-69
2023/01/09 05:44:44;;;;;;;13.87;6.67;;;;;;;6.81;100.00;99223.44;5055182;28;20446;-67
2023/01/09 05:47:10;;;;;;;12.87;5.73;;;;;;;6.78;100.00;99213.31;5055445;28;20443;-67
2023/01/09 05:49:37;;;;;;;17.10;6.50;;;;;;;6.80;100.00;99216.47;5055374;28;20435;-67
2023/01/09 05:52:05;;;;;;;15.00;6.17;;;;;;;6.83;100.00;99217.78;5055391;28;20474;-67
2023/01/09 05:54:31;;;;;;;13.40;6.17;;;;;;;6.79;100.00;99214.09;5055075;28;20442;-68
2023/01/09 05:56:58;;;;;;;17.33;5.33;;;;;;;6.79;100.00;99217.59;5055258;28;20953;-68
2023/01/09 05:59:25;;;;;;;16.60;7.53;;;;;;;6.83;100.00;99223.94;5054999;28;21017;-69
2023/01/09 06:01:53;;;;;;;11.47;5.13;;;;;;;6.86;100.00;99216.34;5055494;28;20445;-68
2023/01/09 06:04:19;;;;;;;18.07;6.23;;;;;;;6.87;100.00;99216.06;5055145;28;20442;-69
2023/01/09 06:06:46;;;;;;;16.00;5.73;;;;;;;6.85;100.00;99215.56;5055555;28;20507;-68
2023/01/09 06:09:14;;;;;;;15.50;6.00;;;;;;;6.89;100.00;99207.66;5055266;28;20458;-69
2023/01/09 06:11:40;;;;;;;14.60;6.37;;;;;;;6.91;100.00;99213.53;5055288;28;20454;-68
2023/01/09 06:14:07;;;;;;;15.30;6.20;;;;;;;6.83;100.00;99207.78;5055244;28;20457;-69
2023/01/09 06:16:34;;;;;;;12.30;4.83;;;;;;;6.80;100.00;99205.72;5054900;28;20958;-68
2023/01/09 06:19:00;;;;;;;11.90;6.10;;;;;;;6.76;100.00;99199.38;5054987;28;20661;-69
2023/01/09 06:21:28;;;;;;;14.10;5.90;;;;;;;6.79;100.00;99204.13;5054764;28;20957;-68
2023/01/09 06:23:55;;;;;;;15.90;6.97;;;;;;;6.83;100.00;99209.69;5055084;28;20452;-69
2023/01/09 06:26:23;;;;;;;15.30;6.80;;;;;;;6.80;100.00;99197.63;5054633;28;20962;-68
2023/01/09 06:28:49;;;;;;;18.83;6.60;;;;;;;6.82;100.00;99200.03;5054539;28;20454;-68
2023/01/09 06:31:16;;;;;;;13.10;6.40;;;;;;;6.81;100.00;99201.91;5054671;28;20446;-68
2023/01/09 06:33:42;;;;;;;13.83;6.03;;;;;;;6.76;100.00;99201.25;5054521;28;20975;-68
2023/01/09 06:36:09;;;;;;;16.30;6.07;;;;;;;6.78;100.00;99205.25;5054368;28;20949;-68
2023/01/09 06:38:36;;;;;;;12.60;5.63;;;;;;;6.73;100.00;99202.69;5054461;28;20520;-68
2023/01/09 06:41:02;;;;;;;14.63;6.10;;;;;;;6.70;100.00;99210.59;5054501;28;20453;-69
2023/01/09 06:43:30;;;;;;;16.67;6.60;;;;;;;6.65;100.00;99199.97;5054359;28;20446;-68
2023/01/09 06:45:57;;;;;;;15.50;6.93;;;;;;;6.69;100.00;99196.34;5054678;28;20817;-68
2023/01/09 06:48:24;;;;;;;15.07;6.20;;;;;;;6.68;100.00;99196.63;5054522;28;20907;-68
2023/01/09 06:50:51;;;;;;;17.40;7.97;;;;;;;6.64;100.00;99185.72;5054212;28;20939;-68
2023/01/09 06:53:18;;;;;;;17.20;7.00;;;;;;;6.59;100.00;99180.44;5054512;28;20434;-68
2023/01/09 06:55:44;;;;;;;19.47;7.30;;;;;;;6.62;100.00;99168.28;5054472;28;20448;-68
2023/01/09 06:58:11;;;;;;;16.13;7.40;;;;;;;6.69;100.00;99174.81;5054050;28;20550;-68
2023/01/09 07:00:39;;;;;;;16.63;6.83;;;;;;;6.77;100.00;99175.94;5054249;28;20482;-68
2023/01/09 07:03:06;;;;;;;18.70;7.90;;;;;;;6.75;100.00;99178.16;5054300;28;20541;-68
2023/01/09 07:05:38;;;;;;;13.40;7.33;;;;;;;6.73;100.00;99173.09;5054304;28;20449;-68
2023/01/09 07:08:04;;;;;;;21.27;8.53;;;;;;;6.74;100.00;99177.38;5053973;28;20985;-67
2023/01/09 07:10:31;;;;;;;20.97;8.00;;;;;;;6.74;100.00;99161.22;5053863;28;20434;-68
2023/01/09 07:12:57;;;;;;;18.10;7.90;;;;;;;6.67;100.00;99165.44;5054054;28;20478;-67
2023/01/09 07:15:24;;;;;;;18.97;8.03;;;;;;;6.73;100.00;99173.09;5054078;28;20449;-68
2023/01/09 07:17:52;;;;;;;19.70;8.70;;;;;;;6.70;100.00;99171.00;5053655;28;21050;-67
2023/01/09 07:20:20;;;;;;;17.00;7.63;;;;;;;6.77;100.00;99176.75;5053949;28;20515;-67
2023/01/09 07:22:46;;;;;;;18.80;7.77;;;;;;;6.76;100.00;99177.84;5053913;28;20448;-68
2023/01/09 07:25:13;;;;;;;14.60;7.67;;;;;;;6.77;100.00;99176.75;5053894;28;20537;-68
2023/01/09 07:27:40;;;;;;;17.27;7.40;;;;;;;6.77;100.00;99181.31;5053703;28;20553;-68
2023/01/09 07:30:08;;;;;;;19.00;7.73;;;;;;;6.77;100.00;99190.22;5053876;28;20434;-67
2023/01/09 07:32:37;;;;;;;17.40;7.87;;;;;;;6.75;100.00;99183.53;5053779;28;20442;-67
2023/01/09 07:35:06;;;;;;;18.30;8.20;;;;;;;6.76;100.00;99195.88;5053722;28;20445;-68
2023/01/09 07:37:33;;;;;;;18.30;6.80;;;;;;;6.78;100.00;99183.72;5053221;28;20474;-69
2023/01/09 07:39:59;;;;;;;17.83;7.90;;;;;;;6.72;100.00;99190.31;5053656;28;20485;-68
2023/01/09 07:42:26;;;;;;;20.00;7.70;;;;;;;6.74;100.00;99182.75;5053623;28;20481;-68
2023/01/09 07:44:53;;;;;;;17.70;6.97;;;;;;;6.64;100.00;99180.34;5053550;28;20530;-68
2023/01/09 07:47:19;;;;;;;19.20;8.27;;;;;;;6.72;100.00;99195.69;5052873;28;20438;-68
2023/01/09 07:49:46;;;;;;;19.17;8.93;;;;;;;6.73;100.00;99191.94;5053131;28;20817;-68
2023/01/09 07:52:14;;;;;;;18.47;8.53;;;;;;;6.79;100.00;99195.28;5053440;28;20868;-68
2023/01/09 07:54:40;;;;;;;18.17;7.60;;;;;;;6.76;100.00;99191.28;5053073;28;20947;-68
2023/01/09 07:57:07;;;;;;;18.80;8.03;;;;;;;6.71;100.00;99188.75;5053362;28;20658;-68
2023/01/09 07:59:33;;;;;;;15.30;6.30;;;;;;;6.66;100.00;99196.94;5053178;28;20490;-70
2023/01/09 08:02:01;;;;;;;19.27;7.83;;;;;;;6.71;100.00;99204.88;5052970;28;20474;-69
2023/01/09 08:04:27;;;;;;;16.13;6.97;;;;;;;6.71;100.00;99204.88;5053218;28;20788;-68
2023/01/09 08:06:55;;;;;;;19.47;7.27;;;;;;;6.80;100.00;99204.94;5052966;28;20939;-70
2023/01/09 08:09:23;;;;;;;16.40;6.83;;;;;;;6.86;100.00;99205.56;5052817;28;20822;-69
2023/01/09 08:11:50;;;;;;;14.70;6.90;;;;;;;6.94;100.00;99205.63;5052834;28;20533;-67
2023/01/09 08:14:17;;;;;;;20.43;8.13;;;;;;;6.96;100.00;99224.16;5053167;28;20445;-67
2023/01/09 08:16:43;;;;;;;14.90;7.23;;;;;;;6.95;100.00;99217.16;5052877;28;20938;-68
2023/01/09 08:19:10;;;;;;;21.03;7.87;;;;;;;6.94;100.00;99208.31;5052646;28;20974;-70
2023/01/09 08:21:37;;;;;;;18.27;8.00;;;;;;;6.89;100.00;99213.03;5053096;28;20454;-71
2023/01/09 08:24:04;;;;;;;17.23;6.37;;;;;;;6.94;100.00;99208.31;5052723;28;20449;-70
2023/01/09 08:26:32;;;;;;;18.17;8.40;;;;;;;6.98;100.00;99203.88;5053054;28;20454;-68
2023/01/09 08:28:59;;;;;;;13.73;6.13;;;;;;;7.00;100.00;99204.38;5052949;28;20481;-68
2023/01/09 08:31:26;;;;;;;14.13;6.73;;;;;;;6.99;100.00;99218.94;5052973;28;20542;-69
2023/01/09 08:33:53;;;;;;;16.83;7.80;;;;;;;6.98;100.00;99211.19;5052629;28;20947;-68
2023/01/09 08:36:19;;;;;;;28.70;8.40;;;;;;;6.97;100.00;99220.38;5052593;28;20529;-68
2023/01/09 08:38:46;;;;;;;22.73;8.10;;;;;;;7.03;100.00;99221.78;5052518;28;20891;-68
2023/01/09 08:49:26;;;;;;;18.87;8.27;;;;;;;7.22;100.00;99233.13;5052597;28;20473;-67
2023/01/09 08:51:53;;;;;;;16.80;7.67;;;;;;;7.15;100.00;99238.16;5052663;28;20453;-67
2023/01/09 08:54:19;;;;;;;22.10;7.00;;;;;;;7.16;100.00;99245.13;5052757;28;20446;-68
2023/01/09 08:56:46;;;;;;;22.10;8.47;;;;;;;7.14;100.00;99247.34;5052445;28;20534;-68
2023/01/09 08:59:15;;;;;;;17.60;7.50;;;;;;;7.14;100.00;99241.19;5052635;28;20537;-67
2023/01/09 09:01:41;;;;;;;21.63;8.17;;;;;;;7.12;100.00;99240.69;5056120;28;20573;-68
2023/01/09 09:04:08;;;;;;;17.63;7.33;;;;;;;7.19;100.00;99236.44;5056516;28;20445;-67
2023/01/09 09:06:35;;;;;;;17.43;7.37;;;;;;;7.23;100.00;99244.69;5056502;28;20456;-67
2023/01/09 09:09:02;;;;;;;15.70;6.90;;;;;;;7.24;100.00;99244.38;5056018;28;20963;-68
2023/01/09 09:11:30;;;;;;;20.33;7.53;;;;;;;7.17;100.00;99244.06;5056119;28;20932;-67
2023/01/09 09:13:56;;;;;;;15.17;6.63;;;;;;;7.20;100.00;99248.78;5056106;28;20442;-67
2023/01/09 09:16:25;;;;;;;18.00;7.33;;;;;;;7.25;100.00;99259.41;5056412;28;20482;-68
2023/01/09 09:18:52;;;;;;;15.17;6.77;;;;;;;7.31;100.00;99255.50;5056251;28;20497;-67
2023/01/09 09:21:19;;;;;;;13.67;6.50;;;;;;;7.31;100.00;99250.13;5056139;28;20574;-68
2023/01/09 09:23:45;;;;;;;15.93;6.90;;;;;;;7.36;100.00;99241.09;5056201;28;20482;-68
2023/01/09 09:26:12;;;;;;;14.07;7.30;;;;;;;7.37;100.00;99256.16;5055823;28;20478;-67
2023/01/09 09:28:39;;;;;;;18.60;7.30;;;;;;;7.42;100.00;99261.38;5055619;28;20541;-67
2023/01/09 09:31:06;;;;;;;17.30;6.80;;;;;;;7.45;100.00;99268.06;5055730;28;21015;-70
2023/01/09 09:33:34;;;;;;;12.73;5.83;;;;;;;7.45;100.00;99262.66;5055804;28;20431;-68
2023/01/09 09:36:00;;;;;;;20.23;8.87;;;;;;;7.39;100.00;99277.38;5055696;28;20991;-68
2023/01/09 09:38:28;;;;;;;21.87;8.60;;;;;;;7.41;100.00;99270.56;5055678;28;20511;-67
2023/01/09 09:44:45;;;;;;;18.27;7.60;;;;;;;7.58;100.00;99275.22;5055699;28;20410;-67
2023/01/09 09:47:23;;;;;;;35.87;15.30;;;;;;;7.71;100.00;99277.00;5055651;28;20457;-67
2023/01/09 09:50:04;;;;;;;25.30;12.13;;;;;;;7.74;100.00;99278.25;5055617;28;20426;-67
2023/01/09 09:52:41;;;;;;;19.43;8.60;;;;;;;7.81;100.00;99276.69;5055380;28;20971;-67
2023/01/09 09:55:18;;;;;;;13.50;6.23;;;;;;;7.91;100.00;99282.91;5055420;28;20947;-67
2023/01/09 09:57:47;;;;;;;13.47;5.87;;;;;;;7.89;100.00;99288.59;5055518;28;20462;-68
2023/01/09 10:00:18;;;;;;;15.00;7.00;;;;;;;7.82;100.00;99291.75;5055476;28;20485;-67
2023/01/09 10:02:51;;;;;;;18.40;7.10;;;;;;;7.89;100.00;99304.78;5055526;28;20422;-67
2023/01/09 10:05:26;;;;;;;13.20;5.93;;;;;;;7.97;100.00;99298.63;5055480;28;20430;-68
2023/01/09 10:07:53;;;;;;;14.53;6.00;;;;;;;7.91;100.00;99299.06;5054991;28;20485;-67
2023/01/09 10:10:29;;;;;;;12.07;5.83;;;;;;;7.92;100.00;99297.94;5054795;28;20442;-67
2023/01/09 10:14:03;;;;;;;17.50;6.03;;;;;;;7.96;100.00;99301.59;5055030;28;20847;-67
2023/01/09 10:15:54;;;;;;;17.63;5.10;;;;;;;8.06;100.00;99296.72;5054754;28;20465;-68
2023/01/09 10:18:31;;;;;;;14.37;5.03;;;;;;;8.16;100.00;99301.00;5055184;28;20462;-68
2023/01/09 10:21:02;;;;;;;10.93;5.13;;;;;;;8.25;100.00;99298.31;5055113;28;20458;-68
2023/01/09 10:23:53;;;;;;;13.20;5.93;;;;;;;8.39;100.00;99300.88;5054792;28;20808;-68
2023/01/09 10:26:25;;;;;;;15.27;5.00;;;;;;;8.55;100.00;99307.41;5055148;28;20474;-67
2023/01/09 10:29:18;;;;;;;10.50;4.50;;;;;;;8.64;100.00;99316.28;5054916;28;20502;-68
2023/01/09 10:31:55;;;;;;;10.90;4.87;;;;;;;8.63;100.00;99322.75;5054946;28;20451;-68
2023/01/09 10:34:39;;;;;;;13.53;4.70;;;;;;;8.61;100.00;99319.59;5054630;28;20953;-67
2023/01/09 10:37:10;;;;;;;12.70;5.00;;;;;;;8.69;100.00;99321.50;5054881;28;20426;-68
2023/01/09 10:39:42;;;;;;;8.73;4.03;;;;;;;8.71;100.00;99315.78;5056125;28;20438;-68
2023/01/09 10:42:16;;;;;;;10.87;4.53;;;;;;;8.72;100.00;99320.88;5054704;28;20466;-67
2023/01/09 10:44:49;;;;;;;10.07;4.27;;;;;;;8.73;100.00;99325.16;5054677;28;20474;-68
2023/01/09 10:47:18;;;;;;;9.97;4.57;;;;;;;8.75;100.00;99322.91;5054277;28;20778;-68
2023/01/09 10:49:47;;;;;;;11.33;4.70;;;;;;;8.76;100.00;99319.09;5054564;28;20511;-68
2023/01/09 10:52:19;;;;;;;10.60;4.07;;;;;;;8.61;100.00;99327.69;5054241;28;20814;-68
2023/01/09 10:54:55;;;;;;;11.93;4.50;;;;;;;8.67;100.00;99328.31;5054546;28;20423;-68
2023/01/09 10:57:38;;;;;;;11.10;4.13;;;;;;;8.69;100.00;99336.91;5054377;28;20426;-68
2023/01/09 11:00:07;;;;;;;8.20;3.43;;;;;;;8.66;100.00;99338.31;5054304;28;20445;-68
2023/01/09 11:02:35;;;;;;;10.90;4.27;;;;;;;8.57;100.00;99334.84;5054268;28;20482;-68
2023/01/09 11:05:01;;;;;;;9.13;3.80;;;;;;;8.64;100.00;99331.69;5054276;28;20446;-67
2023/01/09 11:07:34;;;;;;;11.60;4.37;;;;;;;8.55;100.00;99350.56;5054119;28;20488;-67
2023/01/09 11:10:04;;;;;;;9.20;3.33;;;;;;;8.52;100.00;99362.00;5054134;28;20427;-68
2023/01/09 11:12:32;;;;;;;10.43;4.30;;;;;;;8.54;100.00;99354.34;5054119;28;20545;-67
2023/01/09 11:15:27;;;;;;;8.83;3.07;;;;;;;8.59;100.00;99360.41;5054078;28;20521;-68
2023/01/09 11:18:15;;;;;;;9.80;3.43;;;;;;;8.58;100.00;99356.09;5053965;28;20983;-68
2023/01/09 11:20:42;;;;;;;10.40;3.20;;;;;;;8.59;100.00;99363.13;5053905;28;20474;-68
2023/01/09 11:23:28;;;;;;;9.57;3.60;;;;;;;8.64;100.00;99366.78;5052713;28;21002;-67
2023/01/09 11:25:58;;;;;;;15.50;3.60;;;;;;;8.63;100.00;99370.56;5053906;28;20441;-68
2023/01/09 11:28:24;;;;;;;11.50;4.87;;;;;;;8.61;100.00;99381.69;5053433;28;20545;-67
2023/01/09 11:30:56;;;;;;;14.70;3.60;;;;;;;8.74;100.00;99386.13;5053740;28;20864;-67
2023/01/09 11:33:25;;;;;;;7.70;2.43;;;;;;;8.73;100.00;99387.25;5053768;28;20458;-67
2023/01/09 11:35:58;;;;;;;10.30;3.13;;;;;;;8.75;100.00;99392.31;5053815;28;20443;-68
2023/01/09 11:38:26;;;;;;;8.00;2.30;;;;;;;8.72;100.00;99385.66;5053371;28;20481;-69
2023/01/09 11:40:56;;;;;;;8.10;2.97;;;;;;;8.68;100.00;99387.41;5053233;28;20525;-69
2023/01/09 11:43:31;;;;;;;8.00;2.87;;;;;;;8.72;100.00;99395.63;5053587;28;20439;-68
2023/01/09 11:46:00;;;;;;;8.30;2.90;;;;;;;8.69;100.00;99402.47;5053622;28;20437;-68
2023/01/09 11:48:31;;;;;;;7.20;2.80;;;;;;;8.80;100.00;99400.25;5053133;28;20545;-68
2023/01/09 11:51:00;;;;;;;9.57;3.23;;;;;;;8.93;100.00;99398.50;5053489;28;20786;-68
2023/01/09 11:53:28;;;;;;;8.70;2.77;;;;;;;8.96;100.00;99403.28;5053500;28;20442;-68